Time;durP1;ratioP1;P1;durP2;ratioP2;P2;SDS_P1;SDS_P2;PMS_P1;PMS_P2;Temp;Humidity;BMP_temperature;BMP_pressure;BME280_temperature;BME280_humidity;BME280_pressure;Samples;Min_cycle;Max_cycle;Signal;HPM_P1;HPM_P2
2021/12/19 00:01:32;;;;;;;;;;;;;;;1.34;84.26;99628.38;5093870;28;19916;-74
2021/12/19 00:09:29;;;;;;;;;;;;;;;1.33;83.60;99624.13;5106132;28;19926;-73
2021/12/19 00:11:54;;;;;;;;;;;;;;;1.27;82.56;99622.31;5109694;28;20356;-73
2021/12/19 00:14:22;;;;;;;;;;;;;;;1.23;82.68;99624.53;5111724;28;19916;-73
2021/12/19 00:16:47;;;;;;;;;;;;;;;1.21;82.68;99621.28;5092941;28;19973;-72
2021/12/19 00:19:12;;;;;;;;;;;;;;;1.16;83.06;99626.34;5110924;28;20298;-72
2021/12/19 00:21:40;;;;;;;;;;;;;;;1.15;83.13;99631.78;5111429;28;19927;-73
2021/12/19 00:24:06;;;;;;;;;;;;;;;1.12;83.51;99617.19;5093306;28;19920;-74
2021/12/19 00:26:31;;;;;;;;;;;;;;;1.10;83.52;99617.41;5111728;28;19923;-74
2021/12/19 00:28:56;;;;;;;;;;;;;;;1.09;83.52;99623.66;5111458;28;19920;-73
2021/12/19 00:31:22;;;;;;;;;;;;;;;1.08;83.49;99613.34;5093468;28;19969;-73
2021/12/19 00:33:47;;;;;;;;;;;;;;;1.05;83.80;99619.00;5110438;28;19934;-74
2021/12/19 00:36:13;;;;;;;;;;;;;;;1.07;84.21;99624.88;5111321;28;19981;-75
2021/12/19 00:38:39;;;;;;;;;;;;;;;1.07;83.75;99624.88;5111807;28;19955;-75
2021/12/19 00:41:05;;;;;;;;;;;;;;;1.05;83.41;99629.53;5110807;28;20306;-75
2021/12/19 00:43:36;;;;;;;;;;;;;;;1.02;83.99;99622.03;5093346;28;19926;-76
2021/12/19 00:46:07;;;;;;;;;;;;;;;1.02;84.15;99612.31;5111646;28;19916;-74
2021/12/19 00:48:36;;;;;;;;;;;;;;;1.00;83.96;99611.72;5092780;28;19938;-74
2021/12/19 00:51:02;;;;;;;;;;;;;;;0.98;84.36;99600.56;5110955;28;19920;-73
2021/12/19 00:53:28;;;;;;;;;;;;;;;1.00;83.72;99608.25;5092985;28;20002;-73
2021/12/19 00:55:53;;;;;;;;;;;;;;;1.03;83.87;99602.59;5119529;28;19923;-73
2021/12/19 00:58:18;;;;;;;;;;;;;;;1.05;83.85;99609.28;5132135;28;20361;-75
2021/12/19 01:00:44;;;;;;;;;;;;;;;1.07;82.99;99612.50;5115136;28;20435;-73
2021/12/19 01:03:09;;;;;;;;;;;;;;;1.09;83.03;99613.13;5107156;28;19919;-75
2021/12/19 01:05:36;;;;;;;;;;;;;;;1.14;83.43;99611.75;5109850;28;19927;-74
2021/12/19 01:08:02;;;;;;;;;;;;;;;1.16;82.67;99609.69;5111123;28;19926;-75
2021/12/19 01:10:28;;;;;;;;;;;;;;;1.20;82.56;99605.66;5110707;28;19964;-74
2021/12/19 01:12:53;;;;;;;;;;;;;;;1.22;82.68;99599.19;5110365;28;19923;-75
2021/12/19 01:15:19;;;;;;;;;;;;;;;1.25;81.82;99587.44;5111844;28;19922;-76
2021/12/19 01:17:45;;;;;;;;;;;;;;;1.28;81.67;99584.38;5092416;28;19923;-74
2021/12/19 01:20:13;;;;;;;;;;;;;;;1.31;81.43;99586.63;5110610;28;19920;-74
2021/12/19 01:22:38;;;;;;;;;;;;;;;1.32;81.25;99576.88;5113658;28;19931;-76
2021/12/19 01:25:04;;;;;;;;;;;;;;;1.33;80.89;99571.44;5093341;28;19916;-76
2021/12/19 01:27:29;;;;;;;;;;;;;;;1.34;81.22;99561.69;5092131;28;20392;-76
2021/12/19 01:29:54;;;;;;;;;;;;;;;1.36;80.61;99551.75;5093149;28;19920;-76
2021/12/19 01:32:20;;;;;;;;;;;;;;;1.34;80.12;99551.94;5114658;28;19920;-76
2021/12/19 01:34:45;;;;;;;;;;;;;;;1.32;80.46;99551.34;5114461;28;20262;-76
2021/12/19 01:37:10;;;;;;;;;;;;;;;1.31;80.01;99555.00;5114500;28;20389;-77
2021/12/19 01:39:36;;;;;;;;;;;;;;;1.30;79.91;99547.31;5096058;28;19916;-74
2021/12/19 01:42:01;;;;;;;;;;;;;;;1.29;79.92;99543.84;5114729;28;19916;-74
2021/12/19 01:44:26;;;;;;;;;;;;;;;1.26;80.28;99531.09;5114136;28;19927;-74
2021/12/19 01:46:52;;;;;;;;;;;;;;;1.25;80.30;99540.00;5113932;28;20236;-76
2021/12/19 01:49:18;;;;;;;;;;;;;;;1.23;80.82;99539.38;5095770;28;19920;-79
2021/12/19 01:51:44;;;;;;;;;;;;;;;1.21;80.74;99534.31;5096078;28;19919;-79
2021/12/19 01:54:10;;;;;;;;;;;;;;;1.16;81.25;99526.22;5095835;28;20314;-76
2021/12/19 01:56:35;;;;;;;;;;;;;;;1.15;81.52;99521.13;5095589;28;19927;-78
2021/12/19 01:59:00;;;;;;;;;;;;;;;1.12;81.37;99522.34;5096118;28;19951;-78
2021/12/19 02:01:25;;;;;;;;;;;;;;;1.08;80.77;99518.50;5096055;28;19938;-77
2021/12/19 02:03:51;;;;;;;;;;;;;;;1.02;80.74;99514.84;5095753;28;20359;-77
2021/12/19 02:06:16;;;;;;;;;;;;;;;0.94;80.98;99507.13;5095443;28;20419;-78
2021/12/19 02:08:42;;;;;;;;;;;;;;;0.91;81.54;99516.25;5095444;28;19927;-80
2021/12/19 02:11:07;;;;;;;;;;;;;;;0.90;80.80;99513.81;5095164;28;19966;-80
2021/12/19 02:13:32;;;;;;;;;;;;;;;0.89;81.34;99515.66;5095811;28;20429;-74
2021/12/19 02:15:58;;;;;;;;;;;;;;;0.89;81.34;99506.94;5114108;28;19919;-74
2021/12/19 02:18:23;;;;;;;;;;;;;;;0.89;81.51;99512.19;5094940;28;19919;-74
2021/12/19 02:20:51;;;;;;;;;;;;;;;0.89;81.22;99510.41;5113872;28;20302;-75
2021/12/19 02:23:18;;;;;;;;;;;;;;;0.89;81.14;99506.94;5113926;28;19916;-74
2021/12/19 02:25:43;;;;;;;;;;;;;;;0.91;81.12;99503.09;5095064;28;20014;-75
2021/12/19 02:28:09;;;;;;;;;;;;;;;0.93;81.42;99508.16;5113563;28;20010;-75
2021/12/19 02:30:34;;;;;;;;;;;;;;;0.94;81.12;99505.34;5094987;28;19915;-73
2021/12/19 02:33:00;;;;;;;;;;;;;;;0.96;81.54;99491.94;5098362;28;19920;-75
2021/12/19 02:35:30;;;;;;;;;;;;;;;0.98;81.27;99486.47;5095068;28;19930;-75
2021/12/19 02:48:08;;;;;;;;;;;;;;;0.97;81.27;99488.31;5112869;28;19920;-74
2021/12/19 02:48:44;;;;;;;;;;;;;;;0.93;81.65;99480.00;5111965;28;19930;-72
2021/12/19 02:51:09;;;;;;;;;;;;;;;0.92;81.90;99475.75;5113386;28;20003;-75
2021/12/19 02:53:36;;;;;;;;;;;;;;;0.93;82.11;99468.66;5094513;28;19920;-75
2021/12/19 02:56:03;;;;;;;;;;;;;;;0.91;82.39;99471.47;5112544;28;19984;-74
2021/12/19 02:58:28;;;;;;;;;;;;;;;0.90;82.39;99475.13;5112981;28;19955;-76
2021/12/19 03:00:54;;;;;;;;;;;;;;;0.88;82.67;99465.81;5094069;28;19966;-74
2021/12/19 03:03:19;;;;;;;;;;;;;;;0.83;82.69;99471.72;5112258;28;19919;-74
2021/12/19 03:05:45;;;;;;;;;;;;;;;0.78;82.70;99464.41;5111859;28;19920;-73
2021/12/19 03:08:11;;;;;;;;;;;;;;;0.72;82.48;99470.47;5112133;28;20024;-73
2021/12/19 03:18:12;;;;;;;;;;;;;;;0.66;82.91;99468.66;5111981;28;19977;-73
2021/12/19 03:20:38;;;;;;;;;;;;;;;0.67;82.76;99466.81;5112103;28;19920;-73
2021/12/19 03:23:04;;;;;;;;;;;;;;;0.67;82.70;99469.44;5093955;28;19976;-74
2021/12/19 03:25:30;;;;;;;;;;;;;;;0.66;83.03;99460.75;5112487;28;20398;-73
2021/12/19 03:27:56;;;;;;;;;;;;;;;0.69;82.66;99470.84;5111930;28;19968;-73
2021/12/19 03:30:21;;;;;;;;;;;;;;;0.69;82.97;99460.34;5112244;28;19919;-73
2021/12/19 03:32:47;;;;;;;;;;;;;;;0.68;82.85;99461.34;5111888;28;19919;-74
2021/12/19 03:35:12;;;;;;;;;;;;;;;0.69;82.94;99462.97;5112065;28;20060;-75
2021/12/19 03:37:38;;;;;;;;;;;;;;;0.70;82.78;99455.91;5111567;28;19931;-74
2021/12/19 03:40:09;;;;;;;;;;;;;;;0.70;82.87;99458.53;5111779;28;19920;-73
2021/12/19 03:42:37;;;;;;;;;;;;;;;0.68;82.69;99453.44;5111844;28;20057;-73
2021/12/19 03:45:03;;;;;;;;;;;;;;;0.68;83.11;99442.91;5093289;28;19920;-74
2021/12/19 03:47:29;;;;;;;;;;;;;;;0.67;83.02;99441.28;5111585;28;19943;-74
2021/12/19 03:49:54;;;;;;;;;;;;;;;0.66;82.56;99437.06;5111423;28;20394;-75
2021/12/19 03:52:19;;;;;;;;;;;;;;;0.63;82.82;99443.53;5091154;28;20502;-76
2021/12/19 03:54:45;;;;;;;;;;;;;;;0.64;82.58;99439.06;5093353;28;19920;-74
2021/12/19 03:57:10;;;;;;;;;;;;;;;0.64;82.59;99434.59;5093799;28;19923;-74
2021/12/19 03:59:35;;;;;;;;;;;;;;;0.63;82.33;99433.00;5093047;28;20010;-75
2021/12/19 04:02:01;;;;;;;;;;;;;;;0.63;82.44;99419.84;5112107;28;19916;-73
2021/12/19 04:04:26;;;;;;;;;;;;;;;0.62;81.87;99418.22;5111911;28;19967;-75
2021/12/19 04:06:51;;;;;;;;;;;;;;;0.63;81.72;99417.22;5092916;28;19951;-75
2021/12/19 04:09:16;;;;;;;;;;;;;;;0.62;81.82;99412.97;5093694;28;19943;-75
2021/12/19 04:11:42;;;;;;;;;;;;;;;0.60;81.64;99409.72;5111994;28;20435;-75
2021/12/19 04:14:07;;;;;;;;;;;;;;;0.61;81.62;99402.59;5111829;28;20005;-73
2021/12/19 04:16:33;;;;;;;;;;;;;;;0.59;81.64;99404.66;5112009;28;19920;-74
2021/12/19 04:18:58;;;;;;;;;;;;;;;0.57;81.37;99410.09;5093044;28;19927;-74
2021/12/19 04:21:23;;;;;;;;;;;;;;;0.54;81.98;99407.88;5111722;28;19920;-76
2021/12/19 04:23:48;;;;;;;;;;;;;;;0.52;81.82;99409.09;5093502;28;19972;-75
2021/12/19 04:26:14;;;;;;;;;;;;;;;0.50;82.07;99411.13;5111876;28;20389;-75
2021/12/19 04:28:39;;;;;;;;;;;;;;;0.48;82.10;99403.44;5092699;28;19916;-75
2021/12/19 04:31:05;;;;;;;;;;;;;;;0.44;81.98;99417.97;5093610;28;19920;-76
2021/12/19 04:33:32;;;;;;;;;;;;;;;0.43;82.10;99414.53;5093190;28;19922;-76
2021/12/19 04:36:03;;;;;;;;;;;;;;;0.42;82.37;99409.50;5111358;28;20004;-77
2021/12/19 04:44:32;;;;;;;;;;;;;;;0.37;82.40;99401.41;5111218;28;19920;-75
2021/12/19 05:00:12;;;;;;;;;;;;;;;0.25;82.27;99380.91;5077293;28;19955;-80
2021/12/19 05:05:32;;;;;;;;;;;;;;;0.22;82.09;99370.81;5111708;28;19960;-74
2021/12/19 05:16:12;;;;;;;;;;;;;;;0.12;81.50;99360.69;5115342;28;19934;-76
2021/12/19 05:18:40;;;;;;;;;;;;;;;0.10;81.96;99360.06;5127996;27;19927;-75
2021/12/19 05:21:14;;;;;;;;;;;;;;;0.10;82.07;99369.78;5096862;28;19915;-78
2021/12/19 05:24:04;;;;;;;;;;;;;;;0.09;81.65;99362.91;5114563;28;19920;-79
2021/12/19 05:26:25;;;;;;;;;;;;;;;0.09;81.66;99368.16;5095234;28;19920;-80
2021/12/19 05:28:52;;;;;;;;;;;;;;;0.08;82.07;99367.34;5096160;28;19927;-79
2021/12/19 05:31:18;;;;;;;;;;;;;;;0.08;81.26;99369.16;5095723;28;19928;-76
2021/12/19 05:33:45;;;;;;;;;;;;;;;0.07;81.40;99357.81;5113708;28;19931;-82
2021/12/19 05:45:11;;;;;;;;;;;;;;;0.08;81.42;99359.44;5114782;28;20279;-80
2021/12/19 05:46:56;;;;;;;;;;;;;;;0.09;81.28;99349.75;5113559;28;19931;-80
2021/12/19 05:49:22;;;;;;;;;;;;;;;0.10;81.30;99348.75;5095864;28;20367;-78
2021/12/19 05:51:47;;;;;;;;;;;;;;;0.12;81.16;99352.78;5095735;28;19927;-79
2021/12/19 05:54:13;;;;;;;;;;;;;;;0.18;81.84;99345.09;5095746;28;19919;-79
2021/12/19 05:56:38;;;;;;;;;;;;;;;0.23;81.41;99351.41;5094846;28;19923;-79
2021/12/19 05:59:04;;;;;;;;;;;;;;;0.29;80.99;99342.69;5095970;28;20363;-76
2021/12/19 06:01:29;;;;;;;;;;;;;;;0.34;80.86;99349.97;5095083;28;20402;-78
2021/12/19 06:03:54;;;;;;;;;;;;;;;0.38;80.17;99338.03;5114168;28;20439;-76
2021/12/19 06:06:20;;;;;;;;;;;;;;;0.40;79.74;99341.25;5094921;28;19923;-77
2021/12/19 06:08:46;;;;;;;;;;;;;;;0.44;80.00;99337.22;5094909;28;19927;-77
2021/12/19 06:11:11;;;;;;;;;;;;;;;0.53;79.44;99342.31;5101118;28;19920;-78
2021/12/19 06:13:37;;;;;;;;;;;;;;;0.59;80.12;99338.84;5094770;28;19927;-77
2021/12/19 06:16:03;;;;;;;;;;;;;;;0.68;79.37;99342.09;5094292;28;19928;-78
2021/12/19 06:18:28;;;;;;;;;;;;;;;0.76;79.06;99328.72;5094550;28;20397;-76
2021/12/19 06:20:54;;;;;;;;;;;;;;;0.84;78.80;99327.69;5094856;28;19920;-76
2021/12/19 06:23:19;;;;;;;;;;;;;;;0.90;78.26;99332.94;5129776;27;20297;-78
2021/12/19 06:25:47;;;;;;;;;;;;;;;0.98;78.67;99331.91;5095000;28;19926;-79
2021/12/19 06:28:14;;;;;;;;;;;;;;;1.07;78.62;99327.22;5095084;28;20043;-77
2021/12/19 06:30:39;;;;;;;;;;;;;;;1.15;78.17;99326.19;5095358;28;20373;-79
2021/12/19 06:33:04;;;;;;;;;;;;;;;1.19;77.09;99324.78;5113590;28;19923;-79
2021/12/19 06:35:30;;;;;;;;;;;;;;;1.27;77.32;99327.19;5095327;28;19915;-79
2021/12/19 06:37:56;;;;;;;;;;;;;;;1.35;76.42;99324.31;5095112;28;19958;-77
2021/12/19 06:40:22;;;;;;;;;;;;;;;1.42;76.22;99319.81;5113433;28;19916;-80
2021/12/19 06:42:47;;;;;;;;;;;;;;;1.51;75.96;99314.31;5095094;28;19964;-79
2021/12/19 06:45:12;;;;;;;;;;;;;;;1.58;75.94;99326.44;5095141;28;19923;-79
2021/12/19 06:47:38;;;;;;;;;;;;;;;1.67;75.08;99321.75;5094467;28;19920;-82
2021/12/19 06:50:04;;;;;;;;;;;;;;;1.70;74.22;99326.59;5095168;28;20298;-78
2021/12/19 06:52:29;;;;;;;;;;;;;;;1.76;73.92;99317.84;5095059;28;20375;-78
2021/12/19 06:54:55;;;;;;;;;;;;;;;1.77;73.91;99318.66;5094839;28;19916;-77
2021/12/19 06:57:20;;;;;;;;;;;;;;;1.84;73.77;99323.88;5095079;28;19916;-75
2021/12/19 06:59:47;;;;;;;;;;;;;;;1.81;72.89;99311.09;5094785;28;19916;-79
2021/12/19 07:02:14;;;;;;;;;;;;;;;1.83;72.98;99307.28;5094913;28;19920;-77
2021/12/19 07:04:40;;;;;;;;;;;;;;;1.87;73.64;99313.72;5093830;28;19926;-77
2021/12/19 07:07:05;;;;;;;;;;;;;;;1.88;72.29;99309.25;5094452;28;19919;-76
2021/12/19 07:09:30;;;;;;;;;;;;;;;1.90;71.96;99305.41;5094974;28;19916;-76
2021/12/19 07:11:56;;;;;;;;;;;;;;;1.89;71.85;99308.22;5109732;28;19923;-81
2021/12/19 07:14:21;;;;;;;;;;;;;;;1.93;72.75;99296.25;5094126;28;19919;-78
2021/12/19 07:16:46;;;;;;;;;;;;;;;1.96;72.82;99290.53;5094419;28;20294;-80
2021/12/19 07:19:12;;;;;;;;;;;;;;;1.99;72.60;99298.03;5094578;28;19966;-78
2021/12/19 07:21:37;;;;;;;;;;;;;;;1.99;72.02;99299.84;5094375;28;19964;-77
2021/12/19 07:24:02;;;;;;;;;;;;;;;2.02;71.96;99302.06;5094089;28;20302;-79
2021/12/19 07:26:27;;;;;;;;;;;;;;;2.01;70.74;99297.81;5094016;28;19960;-79
2021/12/19 07:28:53;;;;;;;;;;;;;;;2.05;71.96;99296.34;5093399;28;20072;-78
2021/12/19 07:31:19;;;;;;;;;;;;;;;2.11;71.59;99299.97;5094422;28;19920;-80
2021/12/19 07:33:45;;;;;;;;;;;;;;;2.16;71.31;99305.41;5093891;28;19989;-79
2021/12/19 07:36:11;;;;;;;;;;;;;;;2.22;71.68;99296.63;5093799;28;20390;-75
2021/12/19 07:38:49;;;;;;;;;;;;;;;2.29;70.45;99297.41;5112509;28;19916;-76
2021/12/19 07:41:14;;;;;;;;;;;;;;;2.35;71.40;99290.47;5094339;28;20359;-75
2021/12/19 07:43:39;;;;;;;;;;;;;;;2.45;70.98;99297.91;5093975;28;19916;-79
2021/12/19 07:46:04;;;;;;;;;;;;;;;2.49;70.33;99293.78;5112627;28;19915;-75
2021/12/19 07:48:30;;;;;;;;;;;;;;;2.50;70.59;99292.75;5093455;28;19916;-76
2021/12/19 07:50:55;;;;;;;;;;;;;;;2.51;69.35;99289.91;5092389;28;20406;-76
2021/12/19 07:53:20;;;;;;;;;;;;;;;2.56;70.08;99287.44;5093227;28;19920;-75
2021/12/19 07:55:46;;;;;;;;;;;;;;;2.60;69.90;99285.19;5112413;28;19916;-75
2021/12/19 07:58:11;;;;;;;;;;;;;;;2.62;69.24;99279.66;5093803;28;19916;-76
2021/12/19 08:00:36;;;;;;;;;;;;;;;2.67;70.26;99278.00;5093939;28;20347;-77
2021/12/19 08:03:02;;;;;;;;;;;;;;;2.72;69.44;99278.16;5093276;28;19927;-75
2021/12/19 08:05:27;;;;;;;;;;;;;;;2.78;70.03;99265.09;5093285;28;19920;-75
2021/12/19 08:07:59;;;;;;;;;;;;;;;2.80;69.74;99279.69;5111575;28;19927;-76
2021/12/19 08:12:49;;;;;;;;;;;;;;;2.93;69.22;99273.47;5111210;28;20433;-76
2021/12/19 08:15:15;;;;;;;;;;;;;;;2.94;69.09;99261.06;5112148;28;19923;-76
2021/12/19 08:17:40;;;;;;;;;;;;;;;3.00;69.21;99257.53;5093164;28;19915;-76
2021/12/19 08:20:09;;;;;;;;;;;;;;;3.04;68.11;99248.94;5093120;28;20502;-73
2021/12/19 08:22:34;;;;;;;;;;;;;;;3.06;68.68;99250.56;5131027;28;19922;-73
2021/12/19 08:25:00;;;;;;;;;;;;;;;3.07;67.81;99244.25;5117867;28;19916;-76
2021/12/19 08:27:26;;;;;;;;;;;;;;;3.07;68.29;99250.34;5106162;28;20390;-75
2021/12/19 08:29:55;;;;;;;;;;;;;;;3.06;69.17;99240.78;5091277;28;19927;-74
2021/12/19 08:32:23;;;;;;;;;;;;;;;3.08;68.24;99233.44;5092766;28;19922;-75
2021/12/19 08:34:48;;;;;;;;;;;;;;;3.07;67.85;99237.13;5091583;28;20010;-75
2021/12/19 08:37:15;;;;;;;;;;;;;;;3.02;68.11;99229.84;5111098;28;20007;-75
2021/12/19 08:39:41;;;;;;;;;;;;;;;3.01;69.49;99228.22;5094203;28;19916;-76
2021/12/19 08:42:07;;;;;;;;;;;;;;;3.02;71.61;99229.84;5096513;28;19920;-76
2021/12/19 08:44:32;;;;;;;;;;;;;;;3.07;71.92;99231.03;5097147;28;20613;-76
2021/12/19 08:46:58;;;;;;;;;;;;;;;3.11;69.36;99227.72;5096757;28;19998;-76
2021/12/19 08:49:23;;;;;;;;;;;;;;;3.11;68.83;99214.50;5097136;28;19916;-75
2021/12/19 08:51:48;;;;;;;;;;;;;;;3.13;67.90;99214.28;5096392;28;19920;-74
2021/12/19 08:54:14;;;;;;;;;;;;;;;3.11;68.01;99216.34;5097236;28;20374;-78
2021/12/19 08:56:39;;;;;;;;;;;;;;;3.15;69.11;99209.56;5097842;28;19919;-77
2021/12/19 08:59:04;;;;;;;;;;;;;;;3.18;68.87;99211.78;5097097;28;20382;-75
2021/12/19 09:01:31;;;;;;;;;;;;;;;3.19;68.93;99203.63;5097748;28;19916;-82
2021/12/19 09:03:57;;;;;;;;;;;;;;;3.22;68.57;99201.56;5096886;28;20363;-82
2021/12/19 09:06:22;;;;;;;;;;;;;;;3.22;68.33;99201.56;5094213;28;19927;-83
2021/12/19 09:08:47;;;;;;;;;;;;;;;3.25;68.52;99191.38;5093163;28;20310;-81
2021/12/19 09:11:13;;;;;;;;;;;;;;;3.26;68.20;99185.06;5094523;28;20284;-83
2021/12/19 09:13:38;;;;;;;;;;;;;;;3.30;67.99;99182.78;5093707;28;19920;-76
2021/12/19 09:16:03;;;;;;;;;;;;;;;3.31;67.50;99173.81;5093259;28;20035;-78
2021/12/19 09:18:29;;;;;;;;;;;;;;;3.31;66.82;99174.59;5092660;28;19978;-82
2021/12/19 09:20:55;;;;;;;;;;;;;;;3.32;67.46;99164.81;5093382;28;19916;-77
2021/12/19 09:23:21;;;;;;;;;;;;;;;3.34;67.54;99155.66;5093080;28;19920;-76
2021/12/19 09:25:46;;;;;;;;;;;;;;;3.40;67.79;99151.28;5092889;28;19920;-77
2021/12/19 09:28:11;;;;;;;;;;;;;;;3.43;67.07;99147.38;5094617;28;19923;-76
2021/12/19 09:30:37;;;;;;;;;;;;;;;3.45;67.52;99134.75;5093382;28;19916;-76
2021/12/19 09:33:03;;;;;;;;;;;;;;;3.47;66.87;99135.34;5092536;28;19920;-75
2021/12/19 09:35:28;;;;;;;;;;;;;;;3.46;65.68;99113.38;5092689;28;19928;-76
2021/12/19 09:37:54;;;;;;;;;;;;;;;3.50;66.38;99111.06;5093195;28;19916;-76
2021/12/19 09:40:32;;;;;;;;;;;;;;;3.55;66.97;99110.41;5093273;28;19916;-94
2021/12/19 09:43:02;;;;;;;;;;;;;;;3.61;67.62;99107.63;5081400;28;19978;-75
2021/12/19 09:45:27;;;;;;;;;;;;;;;3.66;67.12;99101.66;5093823;28;19916;-84
2021/12/19 09:47:55;;;;;;;;;;;;;;;3.72;67.64;99098.09;5089322;28;20395;-95
2021/12/19 09:50:21;;;;;;;;;;;;;;;3.74;65.87;99097.91;5098847;28;19916;-85
2021/12/19 09:52:46;;;;;;;;;;;;;;;3.77;66.38;99090.31;5100474;28;19916;-83
2021/12/19 09:55:17;;;;;;;;;;;;;;;3.81;66.39;99088.81;5092502;28;20352;-83
2021/12/19 09:57:42;;;;;;;;;;;;;;;3.87;66.00;99089.72;5092478;28;19916;-83
2021/12/19 10:00:08;;;;;;;;;;;;;;;3.92;66.40;99084.53;5091974;28;20400;-78
2021/12/19 10:02:33;;;;;;;;;;;;;;;3.99;66.07;99085.22;5092843;28;19952;-74
2021/12/19 10:05:12;;;;;;;;;;;;;;;4.03;63.87;99075.00;5091774;28;19955;-76
2021/12/19 10:07:44;;;;;;;;;;;;;;;4.10;64.03;99073.03;5088457;28;19973;-75
2021/12/19 10:10:23;;;;;;;;;;;;;;;4.16;63.67;99073.91;5080970;28;19916;-77
2021/12/19 10:12:51;;;;;;;;;;;;;;;4.19;63.26;99067.34;5092042;28;19924;-77
2021/12/19 10:15:37;;;;;;;;;;;;;;;4.21;62.40;99066.09;5091884;28;20383;-76
2021/12/19 10:18:07;;;;;;;;;;;;;;;4.22;61.38;99067.69;5091157;28;19958;-78
2021/12/19 10:20:53;;;;;;;;;;;;;;;4.26;62.38;99068.03;5091253;28;19928;-77
2021/12/19 10:23:23;;;;;;;;;;;;;;;4.28;61.24;99055.38;5090245;28;19930;-74
2021/12/19 10:25:58;;;;;;;;;;;;;;;4.31;61.89;99060.22;5088038;28;19942;-74
2021/12/19 10:28:23;;;;;;;;;;;;;;;4.36;61.43;99054.19;5090672;28;19921;-80
2021/12/19 10:30:49;;;;;;;;;;;;;;;4.38;61.16;99052.13;5091333;28;20349;-72
2021/12/19 10:33:26;;;;;;;;;;;;;;;4.42;61.67;99051.44;5093770;28;20418;-73
2021/12/19 10:35:55;;;;;;;;;;;;;;;4.48;62.08;99039.09;5091714;28;20399;-74
2021/12/19 10:38:26;;;;;;;;;;;;;;;4.46;61.40;99041.97;5080921;28;20015;-75
2021/12/19 10:40:53;;;;;;;;;;;;;;;4.49;61.89;99038.84;5071461;28;19960;-75
2021/12/19 10:43:19;;;;;;;;;;;;;;;4.53;61.78;99025.94;5071433;28;19985;-77
2021/12/19 10:45:47;;;;;;;;;;;;;;;4.59;62.38;99026.81;5071382;28;19916;-75
2021/12/19 10:48:24;;;;;;;;;;;;;;;4.60;61.44;99026.59;5072476;28;19970;-75
2021/12/19 10:50:57;;;;;;;;;;;;;;;4.62;61.53;99023.72;5071528;28;19967;-74
2021/12/19 10:53:24;;;;;;;;;;;;;;;4.62;60.94;99019.22;5073038;28;20395;-76
2021/12/19 10:55:50;;;;;;;;;;;;;;;4.65;61.11;99016.09;5073037;28;19921;-77
2021/12/19 10:58:19;;;;;;;;;;;;;;;4.69;61.72;99002.38;5071167;28;19916;-76
2021/12/19 11:00:54;;;;;;;;;;;;;;;4.73;60.32;99003.50;5071375;28;19920;-76
2021/12/19 11:03:32;;;;;;;;;;;;;;;4.73;60.23;98990.28;5071216;28;19920;-76
2021/12/19 11:05:57;;;;;;;;;;;;;;;4.77;60.41;98986.09;5070742;28;19920;-76
2021/12/19 11:08:28;;;;;;;;;;;;;;;4.78;59.50;98985.84;5071171;28;20069;-76
2021/12/19 11:10:53;;;;;;;;;;;;;;;4.82;60.03;98978.22;5072187;28;19999;-75
2021/12/19 11:13:19;;;;;;;;;;;;;;;4.83;60.04;98977.19;5072697;28;20402;-76
2021/12/19 11:15:44;;;;;;;;;;;;;;;4.83;60.20;98979.84;5070974;28;19916;-76
2021/12/19 11:18:09;;;;;;;;;;;;;;;4.84;60.15;98976.13;5070786;28;19923;-75
2021/12/19 11:20:35;;;;;;;;;;;;;;;4.87;59.77;98972.22;5070977;28;19923;-76
2021/12/19 11:23:01;;;;;;;;;;;;;;;4.85;60.55;98963.72;5071922;28;19917;-76
2021/12/19 11:25:27;;;;;;;;;;;;;;;4.90;60.69;98955.84;5070886;28;20277;-75
2021/12/19 11:27:52;;;;;;;;;;;;;;;4.92;61.18;98956.38;5070292;28;19917;-76
2021/12/19 11:30:20;;;;;;;;;;;;;;;4.98;60.90;98955.44;5072240;28;19916;-75
2021/12/19 11:33:04;;;;;;;;;;;;;;;5.00;59.35;98947.25;5071832;28;19966;-76
2021/12/19 11:35:31;;;;;;;;;;;;;;;5.04;60.93;98935.09;5072355;28;20000;-76
2021/12/19 11:38:02;;;;;;;;;;;;;;;5.05;59.85;98928.75;5070372;28;19916;-76
2021/12/19 11:40:32;;;;;;;;;;;;;;;5.09;59.33;98927.22;5070601;28;19920;-76
2021/12/19 11:43:05;;;;;;;;;;;;;;;5.09;58.93;98919.28;5070272;28;19917;-76
2021/12/19 11:45:37;;;;;;;;;;;;;;;5.09;59.38;98908.66;5070518;28;19974;-76
2021/12/19 11:48:15;;;;;;;;;;;;;;;5.12;59.10;98914.28;5070180;28;19920;-76
2021/12/19 11:50:48;;;;;;;;;;;;;;;5.14;59.17;98898.16;5070413;28;19974;-76
2021/12/19 11:53:16;;;;;;;;;;;;;;;5.18;59.63;98887.88;5070183;28;20285;-76
2021/12/19 11:55:43;;;;;;;;;;;;;;;5.20;59.65;98889.22;5071719;28;19916;-76
2021/12/19 11:58:08;;;;;;;;;;;;;;;5.21;59.93;98880.22;5070201;28;20302;-76
2021/12/19 12:00:39;;;;;;;;;;;;;;;5.25;59.12;98884.00;5070308;28;19916;-76
2021/12/19 12:03:13;;;;;;;;;;;;;;;5.25;59.59;98880.56;5070042;28;19916;-76
2021/12/19 12:05:41;;;;;;;;;;;;;;;5.23;59.06;98880.78;5073244;28;20000;-76
2021/12/19 12:08:07;;;;;;;;;;;;;;;5.24;58.75;98874.44;5073284;28;19916;-76
2021/12/19 12:10:52;;;;;;;;;;;;;;;5.25;58.82;98872.59;5073569;28;20306;-76
2021/12/19 12:13:55;;;;;;;;;;;;;;;5.27;59.43;98870.47;5072664;28;19916;-76
2021/12/19 12:16:31;;;;;;;;;;;;;;;5.26;59.43;98861.75;5048914;28;20035;-76
2021/12/19 12:18:58;;;;;;;;;;;;;;;5.30;58.83;98854.09;5048550;28;19917;-76
2021/12/19 12:21:28;;;;;;;;;;;;;;;5.32;58.74;98851.19;5054384;28;19970;-76
2021/12/19 12:24:05;;;;;;;;;;;;;;;5.33;58.65;98852.81;5073377;28;20490;-75
2021/12/19 12:26:37;;;;;;;;;;;;;;;5.38;58.44;98844.91;5073293;28;19930;-75
2021/12/19 12:29:03;;;;;;;;;;;;;;;5.35;58.23;98835.59;5073082;28;19916;-75
2021/12/19 12:31:28;;;;;;;;;;;;;;;5.37;58.61;98833.50;5091720;28;19920;-76
2021/12/19 12:33:54;;;;;;;;;;;;;;;5.39;58.38;98818.13;5090840;28;19916;-76
2021/12/19 12:36:20;;;;;;;;;;;;;;;5.41;57.93;98817.91;5072832;28;19973;-76
2021/12/19 12:38:49;;;;;;;;;;;;;;;5.45;59.09;98814.47;5091081;28;19916;-76
2021/12/19 12:41:27;;;;;;;;;;;;;;;5.49;56.83;98814.00;5072317;28;19967;-76
2021/12/19 12:43:54;;;;;;;;;;;;;;;5.48;56.42;98812.38;5072525;28;20383;-76
2021/12/19 12:46:20;;;;;;;;;;;;;;;5.49;56.94;98811.34;5072259;28;19927;-75
2021/12/19 12:49:00;;;;;;;;;;;;;;;5.51;56.09;98806.59;5072301;28;19922;-76
2021/12/19 12:51:28;;;;;;;;;;;;;;;5.52;57.14;98805.56;5072367;28;19923;-75
2021/12/19 12:53:59;;;;;;;;;;;;;;;5.53;56.51;98801.84;5090879;28;20010;-76
2021/12/19 12:56:34;;;;;;;;;;;;;;;5.55;56.57;98797.88;5072621;28;20053;-76
2021/12/19 12:58:59;;;;;;;;;;;;;;;5.56;56.70;98790.75;5072250;28;19921;-76
2021/12/19 13:01:29;;;;;;;;;;;;;;;5.58;56.69;98788.66;5072490;28;20311;-76
2021/12/19 13:03:55;;;;;;;;;;;;;;;5.59;57.46;98779.63;5072862;28;19922;-75
2021/12/19 13:06:39;;;;;;;;;;;;;;;5.61;56.60;98785.47;5069192;28;19920;-76
2021/12/19 13:09:13;;;;;;;;;;;;;;;5.59;56.07;98783.09;5069507;28;20032;-75
2021/12/19 13:11:39;;;;;;;;;;;;;;;5.62;56.28;98779.13;5069647;28;19986;-76
2021/12/19 13:14:10;;;;;;;;;;;;;;;5.61;56.30;98785.47;5069430;28;19916;-76
2021/12/19 13:16:47;;;;;;;;;;;;;;;5.60;56.13;98771.44;5069565;28;19916;-76
2021/12/19 13:19:31;;;;;;;;;;;;;;;5.57;56.62;98774.56;5069401;28;19946;-76
2021/12/19 13:21:56;;;;;;;;;;;;;;;5.59;57.47;98772.47;5069657;28;20308;-77
2021/12/19 13:24:24;;;;;;;;;;;;;;;5.58;57.48;98767.44;5069393;28;19916;-77
2021/12/19 13:27:01;;;;;;;;;;;;;;;5.57;57.01;98763.97;5073102;28;19954;-76
2021/12/19 13:29:26;;;;;;;;;;;;;;;5.58;57.24;98752.31;5073053;28;19920;-76
2021/12/19 13:31:51;;;;;;;;;;;;;;;5.58;56.83;98752.31;5073052;28;20306;-76
2021/12/19 13:34:17;;;;;;;;;;;;;;;5.61;56.59;98743.84;5074478;28;19917;-76
2021/12/19 13:36:42;;;;;;;;;;;;;;;5.63;56.65;98738.28;5072979;28;20362;-76
2021/12/19 13:39:17;;;;;;;;;;;;;;;5.59;56.35;98732.69;5072639;28;20299;-76
2021/12/19 13:41:42;;;;;;;;;;;;;;;5.57;55.97;98729.47;5072937;28;19923;-76
2021/12/19 13:44:08;;;;;;;;;;;;;;;5.55;56.42;98728.91;5072634;28;19924;-76
2021/12/19 13:46:33;;;;;;;;;;;;;;;5.56;57.04;98719.91;5072744;28;20387;-75
2021/12/19 13:48:59;;;;;;;;;;;;;;;5.56;56.09;98719.91;5072537;28;20011;-78
2021/12/19 13:51:27;;;;;;;;;;;;;;;5.56;55.66;98714.59;5072777;28;20366;-77
2021/12/19 13:53:53;;;;;;;;;;;;;;;5.56;56.23;98709.28;5073915;28;19923;-77
2021/12/19 13:56:22;;;;;;;;;;;;;;;5.59;56.54;98708.00;5072388;28;19924;-76
2021/12/19 13:58:52;;;;;;;;;;;;;;;5.60;56.75;98702.47;5072524;28;19970;-76
2021/12/19 14:01:24;;;;;;;;;;;;;;;5.64;56.52;98704.59;5077806;28;19923;-84